Time;durP1;ratioP1;P1;durP2;ratioP2;P2;SDS_P1;SDS_P2;PMS_P1;PMS_P2;Temp;Humidity;BMP_temperature;BMP_pressure;BME280_temperature;BME280_humidity;BME280_pressure;Samples;Min_cycle;Max_cycle;Signal;HPM_P1;HPM_P2
2022/12/02 00:02:30;;;;;;;62.97;31.30;;;;;;;7.90;52.49;102417.41;4927481;28;97333;-71
2022/12/02 00:04:59;;;;;;;62.00;30.52;;;;;;;7.91;52.43;102432.31;4926680;28;97747;-72
2022/12/02 00:07:25;;;;;;;63.53;30.98;;;;;;;7.76;52.88;102424.38;4929976;28;97980;-70
2022/12/02 00:09:53;;;;;;;63.55;31.58;;;;;;;7.86;52.73;102423.53;4927978;28;98377;-71
2022/12/02 00:12:22;;;;;;;63.38;30.42;;;;;;;7.98;52.25;102419.19;4925284;28;97865;-71
2022/12/02 00:15:02;;;;;;;60.00;29.05;;;;;;;7.99;52.19;102420.94;4931214;28;98916;-70
2022/12/02 00:17:29;;;;;;;68.18;30.45;;;;;;;7.89;52.27;102423.53;4928505;28;98210;-70
2022/12/02 00:19:55;;;;;;;61.88;30.83;;;;;;;7.86;52.45;102421.78;4923414;28;97608;-71
2022/12/02 00:22:22;;;;;;;63.72;31.33;;;;;;;7.84;52.60;102415.63;4931467;28;97149;-71
2022/12/02 00:24:48;;;;;;;61.85;29.73;;;;;;;7.95;52.18;102419.16;4921248;28;98962;-70
2022/12/02 00:27:15;;;;;;;62.22;29.80;;;;;;;7.90;52.83;102404.25;4924575;28;98751;-70
2022/12/02 00:29:41;;;;;;;60.00;29.05;;;;;;;7.77;52.77;102405.97;4922352;28;97217;-70
2022/12/02 00:32:09;;;;;;;61.65;30.02;;;;;;;7.74;53.02;102407.72;4916155;28;98886;-70
2022/12/02 00:34:36;;;;;;;61.10;31.25;;;;;;;7.95;52.25;102405.13;4924383;28;99379;-71
2022/12/02 00:37:02;;;;;;;59.45;29.77;;;;;;;7.92;52.45;102408.66;4930208;28;99196;-72
2022/12/02 00:39:29;;;;;;;61.17;28.85;;;;;;;7.82;52.94;102406.84;4928607;28;96828;-70
2022/12/02 00:41:55;;;;;;;66.05;31.25;;;;;;;7.95;52.59;102400.72;4925183;28;96846;-71
2022/12/02 00:47:06;;;;;;;63.83;29.90;;;;;;;7.98;52.38;102405.13;4917960;28;97552;-70
2022/12/02 00:49:34;;;;;;;64.78;30.92;;;;;;;8.08;51.68;102396.34;4923458;28;99418;-70
2022/12/02 00:52:01;;;;;;;68.43;31.20;;;;;;;8.01;51.95;102403.38;4928791;28;96963;-71
2022/12/02 00:54:28;;;;;;;61.53;30.63;;;;;;;7.97;52.40;102390.22;4929446;28;99333;-71
2022/12/02 00:56:54;;;;;;;65.00;30.63;;;;;;;7.90;52.51;102388.44;4921433;28;98856;-71
2022/12/02 00:59:21;;;;;;;61.55;30.23;;;;;;;7.85;52.88;102391.09;4921460;28;97443;-71
2022/12/02 01:01:47;;;;;;;60.28;29.10;;;;;;;7.77;53.11;102390.19;4925198;28;97491;-71
2022/12/02 01:04:14;;;;;;;66.40;30.90;;;;;;;7.82;52.84;102385.78;4920819;28;98904;-71
2022/12/02 01:06:42;;;;;;;64.88;30.75;;;;;;;7.80;52.70;102394.59;4925294;28;99147;-71
2022/12/02 01:09:08;;;;;;;64.72;30.73;;;;;;;7.70;52.93;102390.16;4928296;28;96885;-71
2022/12/02 01:11:35;;;;;;;61.03;30.63;;;;;;;7.90;52.52;102394.59;4928644;28;97697;-69
2022/12/02 01:14:01;;;;;;;60.78;29.85;;;;;;;7.69;53.13;102394.53;4928725;28;98303;-70
2022/12/02 01:16:28;;;;;;;62.58;29.75;;;;;;;7.57;53.26;102387.50;4928010;28;100180;-70
2022/12/02 01:18:54;;;;;;;64.82;29.63;;;;;;;7.82;52.87;102398.06;4929664;28;96841;-70
2022/12/02 01:21:22;;;;;;;70.07;32.78;;;;;;;7.75;53.33;102394.56;4924580;28;96840;-70
2022/12/02 01:23:49;;;;;;;61.15;30.70;;;;;;;7.74;53.32;102392.81;4924681;28;99295;-70
2022/12/02 01:26:16;;;;;;;63.25;29.77;;;;;;;7.86;53.31;102391.97;4926548;28;99438;-70
2022/12/02 01:28:42;;;;;;;64.68;31.70;;;;;;;7.82;53.35;102388.44;4929595;28;96754;-71
2022/12/02 01:31:09;;;;;;;64.68;30.55;;;;;;;7.75;53.28;102383.16;4919911;28;96969;-70
2022/12/02 01:33:36;;;;;;;62.08;29.52;;;;;;;7.93;52.96;102389.34;4929599;28;97791;-70
2022/12/02 01:36:02;;;;;;;66.82;30.98;;;;;;;7.90;52.83;102388.44;4923089;28;99675;-71
2022/12/02 01:38:29;;;;;;;57.75;28.90;;;;;;;7.87;52.87;102386.72;4926033;28;96834;-69
2022/12/02 01:40:57;;;;;;;69.10;31.70;;;;;;;7.73;53.22;102393.69;4923957;28;96822;-72
2022/12/02 01:43:24;;;;;;;59.10;30.58;;;;;;;7.88;53.02;102387.56;4924726;28;98909;-71
2022/12/02 01:45:50;;;;;;;60.42;30.33;;;;;;;7.74;53.43;102390.19;4920062;28;98772;-70
2022/12/02 01:48:17;;;;;;;61.70;31.25;;;;;;;7.86;53.00;102387.59;4926527;28;97681;-71
2022/12/02 01:50:44;;;;;;;60.22;29.98;;;;;;;7.81;53.03;102393.72;4927710;28;96939;-70
2022/12/02 01:53:11;;;;;;;64.03;30.95;;;;;;;7.98;53.20;102390.22;4925566;28;99057;-71
2022/12/02 01:55:38;;;;;;;59.75;29.13;;;;;;;7.93;53.13;102388.47;4923210;28;99194;-70
2022/12/02 01:58:09;;;;;;;64.05;30.85;;;;;;;7.70;53.65;102385.78;4928914;28;97424;-70
2022/12/02 02:00:36;;;;;;;59.13;29.45;;;;;;;7.90;53.01;102383.19;4921735;28;98758;-69
2022/12/02 02:03:02;;;;;;;63.05;29.92;;;;;;;7.91;53.25;102385.81;4929813;28;99376;-70
2022/12/02 02:05:31;;;;;;;60.88;29.50;;;;;;;7.77;53.18;102382.28;4923149;28;99225;-70
2022/12/02 02:08:02;;;;;;;65.10;29.80;;;;;;;7.86;53.22;102378.81;4919017;28;97019;-70
2022/12/02 02:10:29;;;;;;;63.53;31.42;;;;;;;8.00;53.07;102375.31;4925925;28;96999;-71
2022/12/02 02:12:56;;;;;;;59.10;29.40;;;;;;;7.90;53.08;102384.06;4925495;28;99755;-70
2022/12/02 02:15:24;;;;;;;66.97;30.80;;;;;;;7.91;53.20;102379.69;4929116;28;99093;-69
2022/12/02 02:17:51;;;;;;;63.72;30.48;;;;;;;8.05;53.28;102380.59;4927006;28;96916;-71
2022/12/02 02:20:21;;;;;;;59.40;29.75;;;;;;;7.83;53.63;102373.53;4924578;28;97318;-70
2022/12/02 02:22:54;;;;;;;66.30;30.48;;;;;;;7.84;53.53;102372.66;4925841;28;98907;-70
2022/12/02 02:25:22;;;;;;;63.53;30.35;;;;;;;7.67;54.27;102371.75;4914411;28;99020;-70
2022/12/02 02:27:52;;;;;;;69.60;31.02;;;;;;;7.66;54.39;102372.63;4922250;28;96959;-69
2022/12/02 02:30:19;;;;;;;61.38;30.50;;;;;;;7.46;55.03;102376.09;4927616;28;96833;-70
2022/12/02 02:32:46;;;;;;;63.00;29.02;;;;;;;7.53;54.77;102377.84;4926725;28;97783;-70
2022/12/02 02:35:13;;;;;;;62.28;29.70;;;;;;;7.76;54.33;102370.00;4921813;28;98777;-69
2022/12/02 02:37:39;;;;;;;63.30;30.50;;;;;;;7.94;54.07;102377.06;4922623;28;96911;-70
2022/12/02 02:40:08;;;;;;;61.78;30.08;;;;;;;7.83;54.20;102373.53;4919082;28;96834;-70
2022/12/02 02:42:36;;;;;;;64.50;30.08;;;;;;;7.61;54.79;102378.72;4925707;28;99229;-70
2022/12/02 02:45:03;;;;;;;64.30;30.17;;;;;;;7.93;54.07;102380.56;4921245;28;98870;-70
2022/12/02 02:47:29;;;;;;;62.42;30.52;;;;;;;8.11;53.64;102380.59;4922479;28;97044;-70
2022/12/02 02:49:56;;;;;;;62.63;30.85;;;;;;;8.11;53.59;102372.69;4922111;28;97059;-70
2022/12/02 02:52:23;;;;;;;57.95;28.88;;;;;;;8.09;53.94;102366.53;4929948;28;98869;-70
2022/12/02 02:54:49;;;;;;;61.17;29.83;;;;;;;7.98;53.74;102370.91;4927904;28;99135;-71
2022/12/02 02:57:16;;;;;;;63.60;30.92;;;;;;;7.62;54.50;102369.09;4932868;28;97147;-70
2022/12/02 02:59:45;;;;;;;63.10;30.33;;;;;;;7.77;54.34;102370.88;4931525;28;96770;-70
2022/12/02 03:02:14;;;;;;;64.43;29.50;;;;;;;7.60;54.29;102371.75;4925509;28;99016;-69
2022/12/02 03:04:42;;;;;;;61.38;30.08;;;;;;;7.91;54.07;102366.53;4922103;28;99295;-71
2022/12/02 03:07:09;;;;;;;58.92;28.83;;;;;;;7.67;54.82;102362.09;4927282;28;96771;-70
2022/12/02 03:09:36;;;;;;;60.10;28.85;;;;;;;7.69;54.76;102365.59;4923759;28;96937;-70
2022/12/02 03:12:02;;;;;;;61.08;30.00;;;;;;;7.74;54.70;102366.50;4925919;28;101835;-69
2022/12/02 03:14:29;;;;;;;57.72;28.42;;;;;;;7.96;54.21;102365.66;4926740;28;98816;-71
2022/12/02 03:16:59;;;;;;;60.65;29.27;;;;;;;7.87;54.41;102362.13;4929512;28;96842;-70
2022/12/02 03:19:26;;;;;;;59.58;29.08;;;;;;;7.58;54.71;102360.31;4932424;28;96814;-69
2022/12/02 03:21:52;;;;;;;60.25;29.20;;;;;;;7.92;54.13;102355.13;4928208;28;99043;-69
2022/12/02 03:24:19;;;;;;;56.50;28.10;;;;;;;7.94;54.11;102359.50;4929355;28;98825;-70
2022/12/02 03:26:46;;;;;;;61.20;28.20;;;;;;;7.83;54.12;102355.09;4929478;28;96837;-70
2022/12/02 03:29:14;;;;;;;55.53;28.23;;;;;;;7.57;55.12;102355.94;4929088;28;96998;-70
2022/12/02 03:31:41;;;;;;;63.22;28.83;;;;;;;7.92;54.74;102355.13;4927111;28;97869;-71
2022/12/02 03:34:09;;;;;;;57.20;27.88;;;;;;;7.83;54.58;102348.09;4924654;28;99198;-70
2022/12/02 03:36:35;;;;;;;55.53;26.85;;;;;;;7.90;53.81;102351.59;4929321;28;96833;-70
2022/12/02 03:39:02;;;;;;;55.25;27.67;;;;;;;7.80;54.43;102348.09;4928342;28;97436;-73
2022/12/02 03:41:29;;;;;;;58.58;28.33;;;;;;;7.68;54.33;102349.84;4929483;28;99218;-70
2022/12/02 03:43:56;;;;;;;58.70;28.45;;;;;;;7.76;54.60;102343.69;4929402;28;99381;-71
2022/12/02 03:46:22;;;;;;;59.13;28.73;;;;;;;7.78;54.20;102343.69;4929141;28;97827;-70
2022/12/02 03:48:49;;;;;;;64.15;30.10;;;;;;;7.96;53.84;102338.44;4929338;28;96793;-69
2022/12/02 03:51:18;;;;;;;56.80;27.65;;;;;;;7.94;53.63;102335.81;4925838;28;98958;-71
2022/12/02 03:53:45;;;;;;;56.70;27.42;;;;;;;7.88;53.92;102341.06;4918201;28;99210;-70
2022/12/02 03:56:12;;;;;;;52.97;26.40;;;;;;;7.87;53.88;102347.22;4924961;28;97653;-71
2022/12/02 03:58:44;;;;;;;53.83;27.50;;;;;;;7.85;54.21;102350.72;4931388;28;96787;-71
2022/12/02 04:01:10;;;;;;;53.15;27.40;;;;;;;8.01;53.63;102339.31;4928983;28;99000;-71
2022/12/02 04:03:37;;;;;;;53.65;27.75;;;;;;;7.86;53.93;102340.22;4923615;28;98863;-70
2022/12/02 04:06:04;;;;;;;50.35;26.30;;;;;;;7.80;53.82;102340.19;4929299;28;96729;-69
2022/12/02 04:08:31;;;;;;;49.38;24.92;;;;;;;7.83;53.82;102344.56;4928803;28;97098;-71
2022/12/02 04:10:58;;;;;;;53.80;26.38;;;;;;;7.95;53.81;102341.94;4924479;28;100544;-70
2022/12/02 04:13:25;;;;;;;53.17;26.73;;;;;;;7.95;53.67;102340.19;4924664;28;98673;-70
2022/12/02 04:15:51;;;;;;;51.58;25.67;;;;;;;7.74;54.27;102334.06;4926586;28;97651;-69
2022/12/02 04:18:18;;;;;;;49.92;25.58;;;;;;;7.92;54.03;102334.94;4921331;28;99268;-69
2022/12/02 04:20:44;;;;;;;53.03;25.40;;;;;;;7.93;53.73;102330.56;4926398;28;97699;-70
2022/12/02 04:23:11;;;;;;;52.95;25.90;;;;;;;7.98;53.89;102336.69;4928226;28;98886;-70
2022/12/02 04:25:38;;;;;;;52.30;27.02;;;;;;;7.48;54.99;102336.63;4929767;28;96723;-71
2022/12/02 04:28:05;;;;;;;51.40;25.17;;;;;;;7.82;53.49;102329.66;4928612;28;97173;-71
2022/12/02 04:30:32;;;;;;;46.95;24.50;;;;;;;7.82;53.92;102333.16;4926120;28;98965;-71
2022/12/02 04:32:59;;;;;;;50.75;23.77;;;;;;;7.89;53.36;102334.94;4930343;28;98856;-71
2022/12/02 04:35:25;;;;;;;51.55;25.35;;;;;;;7.84;53.86;102341.06;4921875;28;97530;-70
2022/12/02 04:37:53;;;;;;;47.95;24.38;;;;;;;8.06;52.98;102336.72;4913505;28;96900;-71
2022/12/02 04:40:20;;;;;;;44.92;23.45;;;;;;;7.91;52.88;102334.94;4926447;28;98802;-70
2022/12/02 04:42:48;;;;;;;45.85;23.70;;;;;;;7.89;52.65;102340.19;4924522;28;99123;-69
2022/12/02 04:45:14;;;;;;;44.70;24.20;;;;;;;7.57;53.53;102334.88;4924819;28;96895;-70
2022/12/02 04:47:41;;;;;;;45.22;23.55;;;;;;;7.73;53.71;102335.81;4923456;28;96936;-70
2022/12/02 04:50:08;;;;;;;44.80;24.33;;;;;;;7.70;53.14;102324.38;4923603;28;98894;-71
2022/12/02 04:52:35;;;;;;;45.40;24.42;;;;;;;7.79;53.10;102324.41;4921704;28;98837;-70
2022/12/02 04:55:01;;;;;;;44.92;24.33;;;;;;;7.61;53.17;102322.63;4927280;28;98602;-71
2022/12/02 04:57:28;;;;;;;45.55;23.42;;;;;;;7.72;52.99;102320.00;4925624;28;96853;-71
2022/12/02 04:59:56;;;;;;;46.13;23.65;;;;;;;7.46;53.20;102327.84;4929733;28;99197;-69
2022/12/02 05:02:22;;;;;;;44.47;22.42;;;;;;;7.73;52.59;102327.91;4922506;28;101046;-71
2022/12/02 05:04:48;;;;;;;43.03;22.88;;;;;;;7.73;52.26;102321.78;4924275;28;96744;-69
2022/12/02 05:07:16;;;;;;;46.10;22.92;;;;;;;7.63;52.62;102331.38;4929217;28;96876;-71
2022/12/02 05:09:42;;;;;;;45.80;23.90;;;;;;;7.67;51.88;102317.38;4924108;28;99299;-70
2022/12/02 05:12:09;;;;;;;40.55;21.73;;;;;;;7.73;52.20;102321.78;4929080;28;99131;-69
2022/12/02 05:14:35;;;;;;;43.30;21.67;;;;;;;7.64;51.98;102312.09;4926194;28;96813;-69
2022/12/02 05:17:03;;;;;;;41.97;21.77;;;;;;;7.78;51.59;102318.25;4927463;28;98034;-70
2022/12/02 05:19:29;;;;;;;40.22;20.73;;;;;;;7.68;51.79;102311.22;4923590;28;98967;-70
2022/12/02 05:21:56;;;;;;;40.95;20.90;;;;;;;7.68;52.33;102313.00;4926525;28;98986;-70
2022/12/02 05:24:22;;;;;;;37.92;20.17;;;;;;;7.87;51.46;102317.41;4922212;28;97712;-70
2022/12/02 05:26:48;;;;;;;37.80;20.63;;;;;;;7.63;52.27;102314.72;4915868;28;96886;-71
2022/12/02 05:29:15;;;;;;;37.58;19.02;;;;;;;7.59;51.69;102313.84;4924310;28;99341;-70
2022/12/02 05:31:41;;;;;;;40.83;20.27;;;;;;;7.67;51.59;102316.50;4926834;28;98861;-70
2022/12/02 05:34:09;;;;;;;37.28;19.30;;;;;;;7.67;51.12;102313.88;4917930;28;100489;-71
2022/12/02 05:36:36;;;;;;;36.55;19.77;;;;;;;7.67;51.01;102320.00;4924575;28;96823;-70
2022/12/02 05:39:02;;;;;;;36.22;19.33;;;;;;;7.71;50.85;102318.25;4921271;28;98897;-70
2022/12/02 05:41:28;;;;;;;34.65;19.45;;;;;;;7.55;51.21;102318.22;4927084;28;98911;-70
2022/12/02 05:43:57;;;;;;;31.45;16.95;;;;;;;7.73;51.09;102325.28;4928695;28;96739;-72
2022/12/02 05:46:23;;;;;;;33.13;18.45;;;;;;;7.63;51.13;102320.88;4923758;28;99038;-70
2022/12/02 05:48:50;;;;;;;29.27;17.05;;;;;;;7.67;50.65;102314.75;4923940;28;98991;-70
2022/12/02 05:51:19;;;;;;;36.03;19.67;;;;;;;7.79;50.94;102316.50;4923614;28;98937;-71
2022/12/02 05:53:48;;;;;;;33.53;18.55;;;;;;;7.75;50.52;102317.38;4928427;28;97664;-69
2022/12/02 05:56:23;;;;;;;34.22;18.30;;;;;;;7.71;50.92;102315.63;4921163;28;97233;-70
2022/12/02 05:58:49;;;;;;;35.80;19.00;;;;;;;7.69;50.86;102315.59;4925003;28;99219;-70
2022/12/02 06:01:21;;;;;;;35.28;18.15;;;;;;;7.76;50.76;102314.75;4928531;28;99274;-70
2022/12/02 06:03:48;;;;;;;35.17;18.85;;;;;;;7.79;51.08;102317.38;4923171;28;96899;-70
2022/12/02 06:06:15;;;;;;;34.35;18.77;;;;;;;7.95;50.40;102310.34;4923766;28;96848;-70
2022/12/02 06:08:43;;;;;;;32.88;18.05;;;;;;;7.92;50.02;102313.88;4920486;28;99032;-69
2022/12/02 06:11:27;;;;;;;35.85;18.15;;;;;;;7.84;50.35;102310.38;4926386;28;98875;-70
2022/12/02 06:13:56;;;;;;;37.03;19.23;;;;;;;7.71;50.65;102305.97;4925474;28;97581;-71
2022/12/02 06:16:41;;;;;;;39.13;18.65;;;;;;;7.86;50.47;102311.25;4930369;28;97115;-67
2022/12/02 06:19:20;;;;;;;32.65;18.27;;;;;;;7.84;50.54;102310.38;4917993;28;98901;-70
2022/12/02 06:21:46;;;;;;;36.33;19.25;;;;;;;7.78;50.83;102320.00;4922160;28;98807;-70
2022/12/02 06:24:14;;;;;;;32.40;18.55;;;;;;;7.74;50.67;102320.91;4919081;28;96754;-70
2022/12/02 06:26:41;;;;;;;36.20;18.75;;;;;;;7.87;50.63;102325.28;4923810;28;97011;-70
2022/12/02 06:29:18;;;;;;;37.00;20.27;;;;;;;7.77;50.87;102327.03;4920092;28;99251;-70
2022/12/02 06:31:45;;;;;;;38.58;20.73;;;;;;;7.92;50.51;102328.81;4923042;28;98769;-71
2022/12/02 06:34:32;;;;;;;34.60;19.08;;;;;;;7.88;50.39;102332.28;4923123;28;97500;-70
2022/12/02 06:37:02;;;;;;;36.22;20.17;;;;;;;7.96;50.51;102331.44;4927863;28;97666;-71
2022/12/02 06:39:29;;;;;;;39.35;19.42;;;;;;;7.89;50.62;102331.41;4923278;28;99104;-69
2022/12/02 06:41:56;;;;;;;37.22;20.70;;;;;;;7.96;50.53;102333.19;4920420;28;99265;-71
2022/12/02 06:47:46;;;;;;;38.13;19.63;;;;;;;7.87;50.85;102336.69;4925512;28;96837;-72
2022/12/02 06:50:33;;;;;;;35.03;19.00;;;;;;;7.90;50.64;102333.19;4926113;28;98795;-71
2022/12/02 06:53:10;;;;;;;34.78;19.02;;;;;;;7.54;51.24;102344.53;4926133;28;98737;-71
2022/12/02 06:55:39;;;;;;;33.42;18.48;;;;;;;7.68;51.07;102349.84;4919979;28;99319;-70
2022/12/02 06:58:28;;;;;;;37.95;18.35;;;;;;;7.89;50.92;102352.47;4921825;28;97852;-71
2022/12/02 07:01:09;;;;;;;35.60;18.85;;;;;;;7.77;50.60;102344.56;4918514;28;101188;-70
2022/12/02 07:03:38;;;;;;;39.15;20.63;;;;;;;8.00;50.45;102330.56;4915927;28;98787;-70
2022/12/02 07:06:13;;;;;;;37.72;19.48;;;;;;;7.95;50.45;102332.28;4924507;28;96768;-71
2022/12/02 07:08:40;;;;;;;38.85;19.95;;;;;;;7.91;50.31;102327.91;4927920;28;96985;-70
2022/12/02 07:11:19;;;;;;;40.97;20.33;;;;;;;7.78;50.57;102326.16;4926247;28;99375;-70
2022/12/02 07:13:46;;;;;;;35.22;18.20;;;;;;;7.72;51.02;102320.00;4922158;28;98862;-70
2022/12/02 07:16:30;;;;;;;39.03;20.30;;;;;;;7.87;50.63;102325.28;4923390;28;96953;-71
2022/12/02 07:18:56;;;;;;;36.92;19.27;;;;;;;7.81;50.84;102327.94;4914026;28;96920;-71
2022/12/02 07:21:23;;;;;;;38.42;20.42;;;;;;;7.85;50.76;102333.19;4921554;28;99025;-69
2022/12/02 07:23:49;;;;;;;35.80;19.35;;;;;;;7.93;50.66;102325.28;4924610;28;98950;-70
2022/12/02 07:26:19;;;;;;;38.90;19.40;;;;;;;7.70;51.07;102320.00;4922740;28;96832;-69
2022/12/02 07:28:45;;;;;;;41.03;20.38;;;;;;;7.53;51.38;102319.09;4925451;28;96865;-68
2022/12/02 07:31:18;;;;;;;44.15;20.65;;;;;;;7.63;51.07;102323.50;4922969;28;97695;-69
2022/12/02 07:33:45;;;;;;;41.38;21.08;;;;;;;7.82;50.64;102327.03;4921627;28;98844;-68
2022/12/02 07:36:12;;;;;;;37.75;19.52;;;;;;;7.89;50.54;102329.66;4925376;28;97320;-68
2022/12/02 07:38:38;;;;;;;39.10;19.70;;;;;;;7.81;51.06;102333.19;4929585;28;97237;-68
2022/12/02 07:41:06;;;;;;;37.75;19.05;;;;;;;7.85;50.74;102332.31;4922441;28;98935;-69
2022/12/02 07:43:33;;;;;;;34.67;18.95;;;;;;;7.78;50.89;102331.41;4923175;28;98932;-68
2022/12/02 07:46:00;;;;;;;38.97;19.75;;;;;;;8.06;50.67;102339.34;4926977;28;96892;-69
2022/12/02 07:48:26;;;;;;;38.45;18.83;;;;;;;7.99;50.93;102338.47;4926989;28;97318;-68
2022/12/02 07:50:52;;;;;;;38.45;19.75;;;;;;;7.93;51.21;102338.47;4932004;28;98252;-68
2022/12/02 07:53:19;;;;;;;42.42;20.60;;;;;;;7.82;51.45;102345.44;4929388;28;99068;-68
2022/12/02 07:55:46;;;;;;;40.28;19.83;;;;;;;7.83;51.94;102344.56;4932290;28;97048;-68
2022/12/02 07:58:12;;;;;;;37.65;19.05;;;;;;;7.69;51.89;102347.19;4925139;28;97396;-68
2022/12/02 08:00:43;;;;;;;41.78;18.38;;;;;;;7.70;51.75;102342.78;4927147;28;99357;-66
2022/12/02 08:03:10;;;;;;;41.22;19.80;;;;;;;7.78;52.39;102341.06;4923320;28;99112;-65
2022/12/02 08:05:36;;;;;;;38.40;19.52;;;;;;;7.70;52.36;102340.16;4927820;28;97287;-66
2022/12/02 08:08:03;;;;;;;37.72;19.48;;;;;;;7.77;52.22;102342.81;4927075;28;97035;-65
2022/12/02 08:10:30;;;;;;;38.22;18.38;;;;;;;7.70;52.63;102348.06;4921554;28;98229;-65
2022/12/02 08:12:56;;;;;;;39.20;19.45;;;;;;;7.69;52.70;102346.31;4928063;28;101155;-66
2022/12/02 08:15:23;;;;;;;39.65;19.40;;;;;;;7.93;52.23;102339.34;4928307;28;96781;-70
2022/12/02 08:17:52;;;;;;;44.83;19.02;;;;;;;7.69;52.52;102338.41;4926688;28;96859;-68
2022/12/02 08:20:19;;;;;;;40.55;20.00;;;;;;;7.57;52.89;102332.25;4920825;28;100535;-68
2022/12/02 08:22:45;;;;;;;36.10;18.30;;;;;;;7.60;53.10;102342.81;4929068;28;98654;-69
2022/12/02 08:25:12;;;;;;;36.75;18.10;;;;;;;7.61;52.93;102333.16;4928024;28;96785;-69
2022/12/02 08:27:39;;;;;;;38.38;18.35;;;;;;;7.75;52.45;102338.41;4927435;28;97737;-69
2022/12/02 08:30:11;;;;;;;38.13;18.23;;;;;;;7.79;52.41;102342.81;4930991;28;98905;-69
2022/12/02 08:32:38;;;;;;;39.53;18.80;;;;;;;7.60;52.88;102328.78;4926906;28;98460;-71
2022/12/02 08:35:07;;;;;;;35.67;19.05;;;;;;;7.53;53.02;102338.41;4922873;28;98276;-69
2022/12/02 08:37:33;;;;;;;38.00;18.35;;;;;;;7.64;53.07;102342.78;4932501;28;98401;-69
2022/12/02 08:40:00;;;;;;;39.33;18.77;;;;;;;7.68;52.68;102349.84;4930652;28;101864;-68
2022/12/02 08:42:26;;;;;;;38.45;19.15;;;;;;;7.86;52.42;102347.22;4929535;28;99887;-68
2022/12/02 08:44:55;;;;;;;37.38;17.85;;;;;;;7.65;52.74;102345.44;4926772;28;97271;-70
2022/12/02 08:47:22;;;;;;;39.60;18.73;;;;;;;7.67;52.79;102348.06;4922210;28;97877;-70
2022/12/02 08:49:49;;;;;;;37.13;18.65;;;;;;;7.72;52.94;102357.72;4925990;28;98910;-69
2022/12/02 08:52:17;;;;;;;35.38;18.13;;;;;;;7.65;52.62;102349.81;4923089;28;99249;-69
2022/12/02 08:54:44;;;;;;;44.60;18.92;;;;;;;7.85;52.46;102342.84;4930512;28;98757;-69
2022/12/02 08:57:11;;;;;;;39.70;19.40;;;;;;;7.77;52.50;102342.81;4930022;28;97234;-70
2022/12/02 08:59:37;;;;;;;38.33;18.83;;;;;;;7.77;51.99;102339.31;4927736;28;99322;-69
2022/12/02 09:02:04;;;;;;;46.03;20.20;;;;;;;7.86;51.96;102331.44;4920299;28;99113;-67
2022/12/02 09:04:31;;;;;;;40.05;18.77;;;;;;;7.95;51.69;102341.94;4921651;28;97115;-68
2022/12/02 09:06:58;;;;;;;39.80;18.88;;;;;;;7.70;51.84;102346.31;4925851;28;97180;-69
2022/12/02 09:09:26;;;;;;;42.10;19.02;;;;;;;7.77;51.91;102340.19;4925622;28;99344;-68
2022/12/02 09:11:53;;;;;;;43.55;19.33;;;;;;;7.99;51.39;102341.09;4932791;28;98893;-70
2022/12/02 09:14:19;;;;;;;38.55;18.58;;;;;;;7.86;51.45;102340.22;4932721;28;96754;-69
2022/12/02 09:16:45;;;;;;;40.72;18.85;;;;;;;7.98;51.16;102341.97;4929961;28;96896;-69
2022/12/02 09:19:13;;;;;;;37.50;18.80;;;;;;;8.09;50.89;102337.56;4925279;28;99294;-69
2022/12/02 09:21:39;;;;;;;36.22;18.23;;;;;;;8.06;50.92;102347.25;4915321;28;98071;-69
2022/12/02 09:24:06;;;;;;;39.30;17.98;;;;;;;8.22;50.09;102339.31;4924050;28;97106;-69
2022/12/02 09:26:35;;;;;;;41.03;19.50;;;;;;;8.04;50.13;102326.16;4927202;28;97445;-69
2022/12/02 09:29:01;;;;;;;42.90;20.13;;;;;;;8.08;50.42;102348.09;4922426;28;99151;-69
2022/12/02 09:31:27;;;;;;;41.15;19.55;;;;;;;8.02;50.36;102346.34;4921454;28;98950;-70
2022/12/02 09:33:54;;;;;;;38.05;18.80;;;;;;;8.21;49.64;102342.81;4925453;28;97398;-70
2022/12/02 09:36:21;;;;;;;36.95;18.30;;;;;;;7.91;50.23;102337.56;4928202;28;96908;-69
2022/12/02 09:38:48;;;;;;;43.60;20.40;;;;;;;8.33;49.74;102332.34;4926601;28;99665;-70
2022/12/02 09:41:15;;;;;;;44.75;19.23;;;;;;;8.28;49.78;102333.16;4929251;28;100296;-70
2022/12/02 09:43:43;;;;;;;41.70;19.25;;;;;;;8.23;49.33;102330.53;4925793;28;96908;-70
2022/12/02 09:46:10;;;;;;;43.92;20.77;;;;;;;8.24;49.30;102334.94;4926934;28;97497;-70
2022/12/02 09:48:38;;;;;;;48.10;20.92;;;;;;;8.16;49.55;102339.31;4926101;28;99167;-67
2022/12/02 09:51:06;;;;;;;41.88;19.50;;;;;;;8.15;49.98;102334.94;4927977;28;98231;-68
2022/12/02 09:53:37;;;;;;;43.92;19.83;;;;;;;8.07;49.90;102325.31;4923779;28;97375;-65
2022/12/02 09:56:16;;;;;;;45.35;20.75;;;;;;;7.91;50.77;102325.28;4919505;28;96874;-66
2022/12/02 09:58:44;;;;;;;42.60;20.95;;;;;;;7.91;51.15;102324.41;4928825;28;99204;-67
2022/12/02 10:01:12;;;;;;;40.47;19.63;;;;;;;7.92;51.04;102316.53;4926514;28;99130;-65
2022/12/02 10:03:39;;;;;;;40.92;19.45;;;;;;;7.72;51.27;102318.25;4920962;28;97267;-67
2022/12/02 10:06:13;;;;;;;48.30;19.83;;;;;;;7.95;50.96;102323.53;4928300;28;97285;-65
2022/12/02 10:08:40;;;;;;;40.65;19.92;;;;;;;7.89;50.90;102321.75;4921802;28;97928;-65
2022/12/02 10:11:07;;;;;;;48.90;19.98;;;;;;;7.74;51.44;102305.13;4926411;28;99318;-67
2022/12/02 10:13:39;;;;;;;44.13;19.75;;;;;;;7.83;51.48;102302.47;4927106;28;98718;-67
2022/12/02 10:16:12;;;;;;;47.42;21.60;;;;;;;7.59;51.77;102298.94;4926999;28;97833;-67
2022/12/02 10:18:40;;;;;;;40.10;18.80;;;;;;;7.50;52.25;102300.66;4927365;28;99033;-66
2022/12/02 10:21:07;;;;;;;45.10;20.63;;;;;;;7.80;51.76;102298.09;4922678;28;99427;-66
2022/12/02 10:23:33;;;;;;;47.75;20.77;;;;;;;7.78;51.82;102298.97;4925558;28;97017;-67
2022/12/02 10:26:12;;;;;;;46.10;21.02;;;;;;;8.02;51.43;102305.09;4929702;28;96803;-67
2022/12/02 10:28:42;;;;;;;49.63;19.95;;;;;;;7.91;51.56;102290.19;4927264;28;98866;-66
2022/12/02 10:31:11;;;;;;;45.88;20.75;;;;;;;7.58;52.14;102299.81;4925925;28;101927;-67
2022/12/02 10:33:41;;;;;;;48.58;20.73;;;;;;;7.77;51.82;102299.84;4927421;28;96922;-67
2022/12/02 10:36:08;;;;;;;48.78;19.85;;;;;;;7.69;52.22;102289.28;4920956;28;96951;-66
2022/12/02 10:38:40;;;;;;;43.63;20.05;;;;;;;7.66;52.28;102294.56;4923637;28;101056;-66
2022/12/02 10:41:18;;;;;;;47.85;20.73;;;;;;;7.69;52.37;102288.41;4926314;28;98745;-66
2022/12/02 10:44:04;;;;;;;47.20;20.70;;;;;;;7.78;52.26;102285.81;4924913;28;97067;-67
2022/12/02 10:46:32;;;;;;;58.58;21.90;;;;;;;7.77;52.15;102291.94;4922958;28;97481;-66
2022/12/02 10:49:16;;;;;;;49.05;21.00;;;;;;;7.75;52.30;102286.66;4919205;28;101405;-67
2022/12/02 10:51:43;;;;;;;47.30;21.48;;;;;;;7.90;52.05;102283.16;4923516;28;98901;-66
2022/12/02 10:54:23;;;;;;;50.72;21.38;;;;;;;7.99;51.95;102283.19;4927028;28;96753;-67
2022/12/02 10:56:52;;;;;;;51.22;21.02;;;;;;;7.89;52.38;102282.28;4919802;28;96754;-67
2022/12/02 10:59:19;;;;;;;56.80;23.35;;;;;;;7.77;52.30;102273.50;4920462;28;99275;-67
2022/12/02 11:01:47;;;;;;;54.03;22.65;;;;;;;7.92;51.75;102282.31;4922245;28;99634;-67
2022/12/02 11:04:15;;;;;;;56.38;23.98;;;;;;;7.89;51.89;102274.38;4926446;28;98441;-66
2022/12/02 11:06:46;;;;;;;52.78;24.15;;;;;;;7.73;51.97;102275.28;4927262;28;96975;-68
2022/12/02 11:09:18;;;;;;;48.65;21.38;;;;;;;7.68;52.11;102271.75;4926013;28;99712;-65
2022/12/02 11:11:44;;;;;;;57.10;22.33;;;;;;;7.66;51.99;102267.38;4925587;28;98783;-65
2022/12/02 11:14:13;;;;;;;52.47;22.45;;;;;;;7.52;52.09;102264.75;4927454;28;96763;-65
2022/12/02 11:17:03;;;;;;;55.35;23.27;;;;;;;7.43;52.21;102269.97;4928165;28;97049;-67
2022/12/02 11:19:47;;;;;;;57.83;23.85;;;;;;;7.31;52.30;102272.59;4927996;28;99774;-67
2022/12/02 11:22:48;;;;;;;59.85;26.05;;;;;;;7.33;52.51;102278.72;4930024;28;97596;-67
2022/12/02 11:25:52;;;;;;;58.00;24.42;;;;;;;7.36;51.96;102269.09;4925397;28;96857;-66
2022/12/02 11:28:33;;;;;;;54.80;24.40;;;;;;;7.39;51.78;102263.84;4927607;28;98762;-66
2022/12/02 11:31:23;;;;;;;57.65;24.63;;;;;;;7.48;51.47;102266.47;4923478;28;98886;-67